Time;durP1;ratioP1;P1;durP2;ratioP2;P2;SDS_P1;SDS_P2;PMS_P1;PMS_P2;Temp;Humidity;BMP_temperature;BMP_pressure;BME280_temperature;BME280_humidity;BME280_pressure;Samples;Min_cycle;Max_cycle;Signal;HPM_P1;HPM_P2
2022/07/30 00:01:59;;;;;;;4.30;3.60;;;24.90;53.40;26.10;100884.00;;;;5089456;28;20519;-38
2022/07/30 00:04:25;;;;;;;6.63;3.90;;;24.80;53.30;26.10;100885.00;;;;5089046;28;20238;-41
2022/07/30 00:06:50;;;;;;;4.25;3.85;;;24.80;53.40;26.10;100882.00;;;;5089365;28;20169;-40
2022/07/30 00:09:16;;;;;;;4.68;3.53;;;24.80;53.40;26.10;100879.00;;;;5089220;28;20196;-40
2022/07/30 00:11:42;;;;;;;4.10;3.50;;;24.80;53.30;26.10;100877.00;;;;5100822;28;20161;-39
2022/07/30 00:14:08;;;;;;;6.05;3.90;;;24.80;53.30;26.10;100882.00;;;;5098701;28;20715;-38
2022/07/30 00:16:34;;;;;;;3.70;3.40;;;24.80;53.40;26.10;100880.00;;;;5092690;28;20176;-37
2022/07/30 00:19:01;;;;;;;4.30;3.90;;;24.80;53.40;26.00;100880.00;;;;5089726;28;20188;-39
2022/07/30 00:21:26;;;;;;;4.47;3.75;;;24.80;53.40;26.00;100874.00;;;;5089861;28;20266;-38
2022/07/30 00:23:52;;;;;;;4.82;3.80;;;24.80;53.30;26.00;100880.00;;;;5089205;28;20631;-40
2022/07/30 00:26:18;;;;;;;4.00;3.60;;;24.80;53.30;26.00;100871.00;;;;5089203;28;20226;-40
2022/07/30 00:28:43;;;;;;;4.65;3.75;;;24.70;53.30;26.00;100872.00;;;;5088775;28;20192;-40
2022/07/30 00:31:09;;;;;;;3.70;3.40;;;24.70;53.30;26.00;100864.00;;;;5089550;28;20177;-39
2022/07/30 00:33:35;;;;;;;3.80;3.50;;;24.70;53.20;26.00;100875.00;;;;5089771;28;20219;-39
2022/07/30 00:36:01;;;;;;;4.15;3.67;;;24.70;53.20;26.00;100871.00;;;;5089333;28;20218;-38
2022/07/30 00:38:26;;;;;;;4.22;3.83;;;24.70;53.20;25.90;100866.00;;;;5088419;28;20189;-41
2022/07/30 00:40:52;;;;;;;4.57;4.00;;;24.70;53.30;25.90;100867.00;;;;5089077;28;20231;-39
2022/07/30 00:43:18;;;;;;;4.78;3.70;;;24.70;53.30;25.90;100870.00;;;;5089159;28;20246;-40
2022/07/30 00:45:44;;;;;;;4.22;3.70;;;24.70;53.10;25.90;100876.00;;;;5089167;28;20670;-39
2022/07/30 00:48:11;;;;;;;5.00;3.88;;;24.70;53.10;25.90;100867.00;;;;5088965;28;20193;-41
2022/07/30 00:50:37;;;;;;;4.18;3.65;;;24.70;53.20;25.90;100873.00;;;;5089307;28;20540;-39
2022/07/30 00:53:04;;;;;;;4.38;3.47;;;24.70;53.30;25.90;100866.00;;;;5088708;28;20173;-39
2022/07/30 00:55:30;;;;;;;5.30;4.25;;;24.70;53.30;25.90;100870.00;;;;5089135;28;20165;-40
2022/07/30 00:57:55;;;;;;;4.63;3.65;;;24.70;53.10;25.80;100876.00;;;;5088776;28;20185;-38
2022/07/30 01:00:21;;;;;;;4.88;3.70;;;24.70;53.00;25.80;100869.00;;;;5088939;28;20188;-40
2022/07/30 01:02:47;;;;;;;5.13;3.55;;;24.70;53.00;25.80;100857.00;;;;5088511;28;20252;-42
2022/07/30 01:05:13;;;;;;;4.45;4.05;;;24.70;53.00;25.80;100861.00;;;;5088817;28;20764;-40
2022/07/30 01:07:38;;;;;;;4.10;3.70;;;24.70;53.00;25.80;100870.00;;;;5070710;28;20194;-39
2022/07/30 01:10:06;;;;;;;4.18;3.70;;;24.70;52.90;25.70;100867.00;;;;5088763;28;20647;-39
2022/07/30 01:12:31;;;;;;;4.10;3.60;;;24.70;52.90;25.70;100870.00;;;;5089393;28;20197;-38
2022/07/30 01:14:58;;;;;;;4.40;3.70;;;24.70;52.90;25.70;100876.00;;;;5088843;28;20173;-40
2022/07/30 01:17:24;;;;;;;4.10;3.70;;;24.70;52.80;25.70;100868.00;;;;5071003;28;20255;-41
2022/07/30 01:19:54;;;;;;;3.85;3.53;;;24.70;52.80;25.70;100867.00;;;;5089005;28;20227;-40
2022/07/30 01:22:27;;;;;;;4.10;3.70;;;24.70;52.80;25.70;100867.00;;;;5055878;28;20173;-39
2022/07/30 01:25:37;;;;;;;5.65;3.75;;;24.60;52.80;25.70;100868.00;;;;5089556;28;20251;-40
2022/07/30 01:28:11;;;;;;;4.03;3.67;;;24.60;52.90;25.60;100868.00;;;;5074136;28;20180;-40
2022/07/30 01:30:41;;;;;;;5.00;3.78;;;24.60;52.90;25.60;100875.00;;;;5057867;28;20169;-39
2022/07/30 01:33:10;;;;;;;4.35;3.95;;;24.60;52.90;25.60;100869.00;;;;5074282;28;20758;-38
2022/07/30 01:35:36;;;;;;;4.22;3.70;;;24.60;52.80;25.60;100877.00;;;;5057878;28;20256;-39
2022/07/30 01:38:02;;;;;;;4.65;3.67;;;24.50;52.80;25.60;100867.00;;;;5040246;28;20374;-39
2022/07/30 01:40:28;;;;;;;3.97;3.60;;;24.50;52.80;25.60;100865.00;;;;5057620;28;20193;-38
2022/07/30 01:42:56;;;;;;;4.50;3.75;;;24.50;52.90;25.60;100870.00;;;;5092433;28;20214;-40
2022/07/30 01:45:27;;;;;;;5.93;3.85;;;24.60;53.00;25.50;100873.00;;;;5057854;28;20642;-40
2022/07/30 01:47:53;;;;;;;3.70;3.40;;;24.50;52.90;25.60;100879.00;;;;5088962;28;20193;-39
2022/07/30 01:50:19;;;;;;;4.93;3.80;;;24.50;53.00;25.50;100878.00;;;;5059808;28;20169;-37
2022/07/30 01:52:45;;;;;;;3.92;3.53;;;24.60;53.10;25.50;100879.00;;;;5105975;28;20712;-38
2022/07/30 01:55:14;;;;;;;3.42;3.13;;;24.50;53.00;25.50;100873.00;;;;5059258;28;20176;-39
2022/07/30 01:57:40;;;;;;;4.60;3.55;;;24.50;53.00;25.50;100890.00;;;;5057688;28;20189;-39
2022/07/30 02:00:07;;;;;;;4.18;3.60;;;24.50;53.10;25.50;100888.00;;;;5091824;28;20242;-38
2022/07/30 02:02:37;;;;;;;3.88;3.58;;;24.50;53.60;25.50;100891.00;;;;5073610;28;20888;-40
2022/07/30 02:05:04;;;;;;;3.90;3.45;;;24.50;53.00;25.40;100889.00;;;;5091804;28;20177;-38
2022/07/30 02:07:32;;;;;;;4.53;3.70;;;24.40;53.10;25.40;100897.00;;;;5073240;28;20631;-41
2022/07/30 02:10:04;;;;;;;3.83;3.53;;;24.40;53.00;25.40;100893.00;;;;5073774;28;20682;-40
2022/07/30 02:12:31;;;;;;;3.60;3.30;;;24.40;53.00;25.40;100895.00;;;;5058350;28;20169;-39
2022/07/30 02:15:45;;;;;;;3.80;3.35;;;24.40;53.00;25.40;100883.00;;;;5059591;28;20181;-39
2022/07/30 02:18:30;;;;;;;4.32;3.40;;;24.40;53.00;25.30;100886.00;;;;5075917;28;20801;-41
2022/07/30 02:21:06;;;;;;;3.90;3.35;;;24.40;53.10;25.30;100892.00;;;;5074023;28;20279;-39
2022/07/30 02:23:43;;;;;;;4.07;3.55;;;24.40;53.00;25.30;100891.00;;;;5075114;28;20161;-40
2022/07/30 02:26:09;;;;;;;3.93;3.53;;;24.40;53.00;25.30;100893.00;;;;5091917;28;20225;-38
2022/07/30 02:28:38;;;;;;;3.70;3.40;;;24.30;52.80;25.30;100880.00;;;;5056741;28;20181;-39
2022/07/30 02:31:04;;;;;;;3.75;3.45;;;24.30;53.00;25.30;100896.00;;;;5056702;28;20641;-38
2022/07/30 02:33:34;;;;;;;3.95;3.42;;;24.30;52.90;25.20;100903.00;;;;5056594;28;20173;-40
2022/07/30 02:35:59;;;;;;;3.72;3.42;;;24.30;53.00;25.20;100899.00;;;;5056672;28;20173;-38
2022/07/30 02:38:26;;;;;;;4.38;3.67;;;24.20;52.90;25.20;100899.00;;;;5071527;28;20681;-39
2022/07/30 02:40:54;;;;;;;3.80;3.43;;;24.20;52.90;25.20;100895.00;;;;5056642;28;20620;-40
2022/07/30 02:43:20;;;;;;;4.22;3.83;;;24.20;52.90;25.20;100897.00;;;;5056267;28;20230;-39
2022/07/30 02:45:49;;;;;;;4.72;3.92;;;24.20;53.00;25.20;100905.00;;;;5056508;28;20180;-39
2022/07/30 02:48:15;;;;;;;4.10;3.70;;;24.20;53.00;25.20;100904.00;;;;5090437;28;20197;-39
2022/07/30 02:50:41;;;;;;;4.40;3.90;;;24.20;53.00;25.10;100906.00;;;;5073089;28;20212;-39
2022/07/30 02:53:09;;;;;;;4.77;3.87;;;24.20;53.00;25.10;100894.00;;;;5040549;28;20196;-41
2022/07/30 02:55:35;;;;;;;3.95;3.60;;;24.20;53.00;25.10;100901.00;;;;5058029;28;20169;-39
2022/07/30 02:58:02;;;;;;;4.13;3.45;;;24.10;53.00;25.10;100908.00;;;;5061337;28;20685;-37
2022/07/30 03:00:27;;;;;;;4.25;3.70;;;24.10;53.00;25.10;100914.00;;;;5074258;28;20193;-38
2022/07/30 03:02:53;;;;;;;3.80;3.50;;;24.10;52.90;25.10;100909.00;;;;5056062;28;20169;-39
2022/07/30 03:05:19;;;;;;;4.03;3.58;;;24.10;53.00;25.00;100914.00;;;;5072550;28;20173;-44
2022/07/30 03:07:45;;;;;;;3.93;3.27;;;24.10;53.00;25.00;100913.00;;;;5090215;28;20700;-38
2022/07/30 03:10:11;;;;;;;5.57;3.67;;;24.10;53.00;25.00;100907.00;;;;5073030;28;20280;-41
2022/07/30 03:12:37;;;;;;;4.78;4.03;;;24.10;53.00;25.00;100913.00;;;;5064645;28;20184;-40
2022/07/30 03:15:04;;;;;;;4.32;3.50;;;24.10;53.30;25.00;100919.00;;;;5071535;28;20181;-37
2022/07/30 03:17:36;;;;;;;4.18;3.42;;;24.00;53.00;25.00;100923.00;;;;5100631;28;20176;-37
2022/07/30 03:20:03;;;;;;;3.80;3.50;;;24.00;53.00;24.90;100913.00;;;;5073522;28;20189;-39
2022/07/30 03:22:30;;;;;;;6.15;5.45;;;24.00;52.90;24.90;100903.00;;;;5039064;28;20189;-38
2022/07/30 03:24:55;;;;;;;5.30;4.90;;;24.00;53.30;24.90;100906.00;;;;5055689;28;20173;-40
2022/07/30 03:27:21;;;;;;;9.10;6.82;;;24.00;53.10;24.90;100915.00;;;;5071877;28;20169;-38
2022/07/30 03:29:47;;;;;;;5.97;5.38;;;23.90;53.20;24.90;100909.00;;;;5055819;28;20610;-41
2022/07/30 03:32:13;;;;;;;4.90;4.50;;;23.90;53.10;24.80;100915.00;;;;5039187;28;20238;-39
2022/07/30 03:34:39;;;;;;;5.13;4.67;;;23.90;53.20;24.80;100918.00;;;;5089647;28;20165;-41
2022/07/30 03:37:05;;;;;;;4.60;4.10;;;23.90;53.10;24.80;100925.00;;;;5071383;28;20177;-41
2022/07/30 03:39:34;;;;;;;4.75;4.00;;;23.80;52.90;24.80;100913.00;;;;5071913;28;20188;-39
2022/07/30 03:42:01;;;;;;;4.33;3.87;;;23.80;53.10;24.80;100897.00;;;;5071704;28;20169;-40
2022/07/30 03:44:28;;;;;;;4.40;4.00;;;23.80;53.10;24.80;100927.00;;;;5071919;28;20761;-40
2022/07/30 03:46:54;;;;;;;3.93;3.63;;;23.80;53.10;24.70;100921.00;;;;5055199;28;20632;-39
2022/07/30 03:49:20;;;;;;;4.00;3.60;;;23.80;53.00;24.70;100919.00;;;;5055114;28;20331;-39
2022/07/30 03:51:46;;;;;;;4.28;3.88;;;23.80;53.10;24.70;100921.00;;;;5055158;28;20523;-40
2022/07/30 03:54:12;;;;;;;4.20;3.80;;;23.70;53.10;24.70;100926.00;;;;5055034;28;20177;-38
2022/07/30 03:56:37;;;;;;;4.60;3.87;;;23.70;53.20;24.70;100921.00;;;;5068366;28;20427;-40
2022/07/30 03:59:03;;;;;;;4.10;3.70;;;23.70;53.20;24.60;100931.00;;;;5053352;28;20209;-39
2022/07/30 04:01:29;;;;;;;5.17;3.53;;;23.60;53.20;24.60;100934.00;;;;5068996;28;20548;-38
2022/07/30 04:04:03;;;;;;;4.40;4.00;;;23.60;53.20;24.60;100937.00;;;;5068625;28;20169;-39
2022/07/30 04:06:28;;;;;;;4.10;3.57;;;23.60;53.20;24.60;100944.00;;;;5067947;28;20161;-39
2022/07/30 04:08:54;;;;;;;4.90;3.80;;;23.60;53.20;24.50;100943.00;;;;5068768;28;20559;-39
2022/07/30 04:11:20;;;;;;;3.93;3.53;;;23.60;53.20;24.50;100945.00;;;;5069253;28;20169;-39
2022/07/30 04:13:46;;;;;;;3.77;3.47;;;23.60;53.20;24.50;100944.00;;;;5068652;28;20181;-39
2022/07/30 04:16:36;;;;;;;3.60;3.30;;;23.60;53.10;24.50;100947.00;;;;5068982;28;20192;-39
2022/07/30 04:19:05;;;;;;;4.00;3.20;;;23.60;53.20;24.50;100955.00;;;;5052235;28;20196;-40
2022/07/30 04:21:31;;;;;;;3.70;3.40;;;23.60;53.20;24.50;100957.00;;;;5069231;28;20267;-39
2022/07/30 04:23:57;;;;;;;3.57;3.27;;;23.60;53.20;24.40;100952.00;;;;5051122;28;20643;-38
2022/07/30 04:26:22;;;;;;;5.30;3.50;;;23.50;53.10;24.40;100951.00;;;;5050532;28;20186;-40
2022/07/30 04:28:48;;;;;;;3.80;3.50;;;23.60;53.20;24.40;100965.00;;;;5055858;28;20189;-38
2022/07/30 04:31:14;;;;;;;4.00;3.47;;;23.50;53.10;24.40;100956.00;;;;5077484;28;20201;-39
2022/07/30 04:33:40;;;;;;;5.07;3.77;;;23.50;53.10;24.40;100963.00;;;;5057930;28;20181;-37
2022/07/30 04:36:07;;;;;;;4.33;3.50;;;23.50;53.30;24.40;100963.00;;;;5051051;28;20189;-38
2022/07/30 04:38:32;;;;;;;3.90;3.60;;;23.40;53.30;24.40;100965.00;;;;5068430;28;20202;-40
2022/07/30 04:40:58;;;;;;;5.83;4.03;;;23.40;53.00;24.40;100974.00;;;;5068405;28;20619;-39
2022/07/30 04:43:24;;;;;;;4.03;3.70;;;23.40;53.60;24.30;100975.00;;;;5067864;28;20515;-40
2022/07/30 04:45:50;;;;;;;3.87;3.50;;;23.40;53.30;24.30;100973.00;;;;5068607;28;20171;-38
2022/07/30 04:48:16;;;;;;;4.60;3.50;;;23.40;53.20;24.30;100980.00;;;;5068441;28;20298;-41
2022/07/30 04:50:44;;;;;;;4.07;3.50;;;23.40;53.30;24.30;100978.00;;;;5068442;28;20166;-38
2022/07/30 04:53:10;;;;;;;3.90;3.60;;;23.30;53.10;24.30;100982.00;;;;5066488;28;20176;-40
2022/07/30 04:55:37;;;;;;;5.13;3.80;;;23.30;53.50;24.20;100999.00;;;;5050628;28;20240;-39
2022/07/30 04:58:03;;;;;;;4.97;4.00;;;23.30;53.30;24.20;100997.00;;;;5066857;28;20702;-39
2022/07/30 05:00:29;;;;;;;3.63;3.33;;;23.30;53.70;24.20;100998.00;;;;5051548;28;20229;-38
2022/07/30 05:02:55;;;;;;;5.23;3.63;;;23.30;53.40;24.20;101009.00;;;;5054226;28;20174;-40
2022/07/30 05:05:22;;;;;;;4.33;3.60;;;23.20;53.20;24.20;100997.00;;;;5069906;28;20244;-39
2022/07/30 05:07:48;;;;;;;3.90;3.50;;;23.30;53.30;24.20;100991.00;;;;5052724;28;20691;-39
2022/07/30 05:10:14;;;;;;;4.40;3.60;;;23.30;53.30;24.10;101001.00;;;;5053610;28;20193;-39
2022/07/30 05:12:40;;;;;;;4.50;3.47;;;23.30;53.20;24.10;100944.00;;;;5071965;28;20170;-40
2022/07/30 05:15:07;;;;;;;4.23;3.60;;;23.20;53.30;24.10;101004.00;;;;5071543;28;20313;-39
2022/07/30 05:17:33;;;;;;;4.27;3.70;;;23.20;53.30;24.10;101007.00;;;;5071940;28;20605;-40
2022/07/30 05:19:59;;;;;;;4.20;3.80;;;23.30;53.40;24.10;101003.00;;;;5071793;28;20198;-40
2022/07/30 05:22:28;;;;;;;4.33;4.00;;;23.20;53.30;24.10;101009.00;;;;5071596;28;20255;-40
2022/07/30 05:24:57;;;;;;;5.03;4.53;;;23.20;53.40;24.10;101022.00;;;;5071598;28;20169;-38
2022/07/30 05:27:23;;;;;;;6.07;4.33;;;23.20;53.90;24.10;101018.00;;;;5071375;28;20168;-38
2022/07/30 05:29:49;;;;;;;8.90;4.20;;;23.20;53.40;24.00;101017.00;;;;5053995;28;20173;-41
2022/07/30 05:32:14;;;;;;;5.07;4.20;;;23.20;53.40;24.00;101013.00;;;;5071598;28;20172;-39
2022/07/30 05:34:40;;;;;;;4.30;3.90;;;23.20;53.50;24.00;101015.00;;;;5071402;28;20161;-40
2022/07/30 05:37:06;;;;;;;4.63;4.23;;;23.20;53.50;24.00;101024.00;;;;5072203;28;20193;-42
2022/07/30 05:39:31;;;;;;;4.67;4.27;;;23.20;53.80;24.00;101028.00;;;;5073229;28;20201;-37
2022/07/30 05:41:57;;;;;;;7.33;4.30;;;23.20;53.70;24.00;101018.00;;;;5071407;28;20204;-39
2022/07/30 05:44:23;;;;;;;4.53;4.13;;;23.20;53.60;24.00;101019.00;;;;5070978;28;20166;-41
2022/07/30 05:46:49;;;;;;;4.73;3.70;;;23.20;53.60;23.90;101009.00;;;;5071329;28;20252;-39
2022/07/30 05:49:14;;;;;;;5.27;4.23;;;23.10;53.50;23.90;101023.00;;;;5053640;28;20186;-39
2022/07/30 05:51:41;;;;;;;4.80;4.20;;;23.20;53.70;23.90;101015.00;;;;5071631;28;20703;-39
2022/07/30 05:54:07;;;;;;;5.13;4.40;;;23.20;53.70;23.90;101012.00;;;;5071159;28;20189;-39
2022/07/30 05:56:32;;;;;;;4.60;4.20;;;23.20;53.80;23.90;101018.00;;;;5071374;28;20541;-39
2022/07/30 05:58:58;;;;;;;6.03;5.43;;;23.10;53.90;23.90;101016.00;;;;5071177;28;20197;-39
2022/07/30 06:01:24;;;;;;;5.63;5.00;;;23.10;54.40;23.90;101020.00;;;;5053022;28;20748;-38
2022/07/30 06:03:50;;;;;;;4.83;4.30;;;23.00;54.90;23.90;101025.00;;;;5072306;28;20173;-37
2022/07/30 06:06:15;;;;;;;4.57;4.17;;;23.10;54.40;23.90;101028.00;;;;5072584;28;20166;-38
2022/07/30 06:08:42;;;;;;;7.00;5.90;;;23.00;54.50;23.80;101023.00;;;;5071516;28;20226;-38
2022/07/30 06:11:08;;;;;;;7.90;7.10;;;23.10;55.70;23.90;101025.00;;;;5070542;28;20587;-39
2022/07/30 06:13:35;;;;;;;8.80;7.50;;;23.00;56.40;23.80;101022.00;;;;5070192;28;20320;-39
2022/07/30 06:16:00;;;;;;;7.70;6.63;;;23.00;57.30;23.80;101033.00;;;;5071180;28;20177;-39
2022/07/30 06:18:26;;;;;;;7.40;6.67;;;22.90;56.90;23.80;101036.00;;;;5070738;28;20212;-39
2022/07/30 06:20:53;;;;;;;8.90;7.00;;;22.90;57.50;23.80;101040.00;;;;5070827;28;20201;-39
2022/07/30 06:23:19;;;;;;;10.03;8.90;;;22.80;56.90;23.80;101041.00;;;;5070897;28;20386;-38
2022/07/30 06:25:49;;;;;;;10.73;8.83;;;22.80;58.30;23.70;101044.00;;;;5070312;28;20657;-39
2022/07/30 06:28:15;;;;;;;9.00;8.10;;;22.80;58.70;23.70;101037.00;;;;5052875;28;20702;-43
2022/07/30 06:30:44;;;;;;;10.17;7.50;;;22.70;58.60;23.70;101038.00;;;;5086692;28;20262;-38
2022/07/30 06:33:10;;;;;;;10.97;7.23;;;22.70;57.80;23.70;101039.00;;;;5093021;28;20153;-38
2022/07/30 06:35:36;;;;;;;13.87;10.50;;;22.70;58.40;23.70;101046.00;;;;5081380;28;20166;-39
2022/07/30 06:38:02;;;;;;;10.90;9.73;;;22.80;59.00;23.70;101044.00;;;;5071076;28;20208;-40
2022/07/30 06:40:28;;;;;;;11.73;10.43;;;22.80;59.00;23.70;101044.00;;;;5070381;28;20627;-39
2022/07/30 06:42:54;;;;;;;12.40;11.20;;;22.70;59.40;23.60;101057.00;;;;5070322;28;20532;-39
2022/07/30 06:45:19;;;;;;;12.70;11.60;;;22.70;59.40;23.60;101056.00;;;;5070171;28;20166;-39
2022/07/30 06:47:45;;;;;;;11.60;10.50;;;22.60;59.70;23.60;101055.00;;;;5070269;28;20190;-39
2022/07/30 06:50:11;;;;;;;13.03;11.27;;;22.70;59.30;23.60;101057.00;;;;5070949;28;20177;-38
2022/07/30 06:52:37;;;;;;;13.30;12.10;;;22.70;58.50;23.60;101063.00;;;;5071301;28;20177;-40
2022/07/30 06:55:03;;;;;;;18.63;16.80;;;22.70;58.50;23.60;101053.00;;;;5070081;28;20571;-39
2022/07/30 06:57:29;;;;;;;19.50;17.60;;;22.60;60.10;23.50;101057.00;;;;5084761;28;20180;-40
2022/07/30 06:59:55;;;;;;;19.63;17.60;;;22.60;61.20;23.50;101064.00;;;;5090624;28;20736;-39
2022/07/30 07:02:20;;;;;;;23.40;21.13;;;22.50;61.60;23.40;101070.00;;;;5090479;28;20582;-38
2022/07/30 07:04:46;;;;;;;23.93;21.73;;;22.40;62.30;23.40;101062.00;;;;5089618;28;20631;-40
2022/07/30 07:07:12;;;;;;;27.70;24.93;;;22.40;62.20;23.40;101059.00;;;;5088942;28;20540;-39
2022/07/30 07:09:38;;;;;;;31.57;28.47;;;22.40;62.10;23.40;101073.00;;;;5090237;28;20553;-39
2022/07/30 07:12:04;;;;;;;31.73;28.70;;;22.40;62.20;23.40;101079.00;;;;5090476;28;20263;-38
2022/07/30 07:14:29;;;;;;;32.63;29.60;;;22.40;61.80;23.40;101074.00;;;;5090582;28;20195;-38
2022/07/30 07:16:55;;;;;;;33.93;30.73;;;22.40;60.80;23.40;101059.00;;;;5090300;28;20169;-42
2022/07/30 07:19:21;;;;;;;29.50;26.70;;;22.50;61.30;23.40;101078.00;;;;5036247;28;20827;-40
2022/07/30 07:21:47;;;;;;;27.40;24.83;;;22.50;60.90;23.30;101085.00;;;;5087559;28;20283;-42
2022/07/30 07:24:12;;;;;;;25.00;22.60;;;22.50;60.00;23.30;101081.00;;;;5083856;28;20211;-40
2022/07/30 07:26:38;;;;;;;23.10;20.90;;;22.60;59.70;23.40;101082.00;;;;5063093;28;20582;-41
2022/07/30 07:29:04;;;;;;;24.37;22.07;;;22.70;59.40;23.40;101093.00;;;;5089129;28;20899;-41
2022/07/30 07:31:30;;;;;;;22.47;20.23;;;22.70;58.90;23.40;101082.00;;;;5088995;28;20729;-41
2022/07/30 07:33:56;;;;;;;22.77;20.57;;;22.70;58.80;23.40;101076.00;;;;5089663;28;20233;-41
2022/07/30 07:36:21;;;;;;;21.97;19.83;;;22.60;58.70;23.40;101099.00;;;;5067369;28;20268;-42
2022/07/30 07:38:47;;;;;;;21.20;19.30;;;22.60;58.50;23.40;101092.00;;;;5067906;28;20197;-41
2022/07/30 07:41:13;;;;;;;21.20;19.13;;;22.60;58.40;23.40;101087.00;;;;5068565;28;20189;-41
2022/07/30 07:43:39;;;;;;;20.17;18.17;;;22.60;58.30;23.40;101090.00;;;;5068753;28;20180;-40
2022/07/30 07:46:05;;;;;;;19.80;17.87;;;22.60;58.20;23.40;101082.00;;;;5068827;28;20177;-40
2022/07/30 07:48:31;;;;;;;21.03;18.70;;;22.60;58.10;23.40;101096.00;;;;5068405;28;20280;-42
2022/07/30 07:50:57;;;;;;;20.10;18.23;;;22.60;58.10;23.40;101095.00;;;;5068461;28;20236;-41
2022/07/30 07:53:23;;;;;;;19.40;17.57;;;22.60;58.10;23.40;101090.00;;;;5068188;28;20647;-41
2022/07/30 07:55:48;;;;;;;19.73;17.90;;;22.60;58.00;23.40;101089.00;;;;5068176;28;20227;-42
2022/07/30 07:58:14;;;;;;;19.13;17.50;;;22.60;58.00;23.40;101093.00;;;;5050107;28;20193;-41
2022/07/30 08:00:40;;;;;;;19.07;17.30;;;22.60;57.80;23.40;101089.00;;;;5068351;28;20254;-41
2022/07/30 08:03:06;;;;;;;19.57;17.43;;;22.60;57.80;23.40;101094.00;;;;5068191;28;20216;-41
2022/07/30 08:05:32;;;;;;;18.50;16.87;;;22.60;57.70;23.40;101085.00;;;;5076041;28;20173;-41
2022/07/30 08:07:58;;;;;;;17.50;16.00;;;22.70;57.70;23.50;101085.00;;;;5089843;28;20671;-41
2022/07/30 08:10:24;;;;;;;17.87;16.17;;;22.70;57.60;23.50;101082.00;;;;5088003;28;20189;-40
2022/07/30 08:12:49;;;;;;;18.27;16.57;;;22.70;57.50;23.50;101070.00;;;;5075554;28;20587;-42
2022/07/30 08:15:15;;;;;;;17.53;16.13;;;22.70;58.10;23.50;101076.00;;;;5090070;28;20250;-41
2022/07/30 08:17:43;;;;;;;17.70;16.20;;;22.70;57.30;23.50;101086.00;;;;5089425;28;20301;-41
2022/07/30 08:20:10;;;;;;;16.80;15.40;;;22.70;57.30;23.50;101082.00;;;;4993301;28;20201;-41
2022/07/30 08:22:35;;;;;;;16.87;15.37;;;22.70;57.20;23.50;101081.00;;;;5088604;28;20177;-40
2022/07/30 08:25:02;;;;;;;16.57;15.13;;;22.70;57.20;23.50;101089.00;;;;5088523;28;20664;-43
2022/07/30 08:27:28;;;;;;;16.43;14.90;;;22.70;57.10;23.50;101086.00;;;;5070005;28;20792;-41
2022/07/30 08:29:53;;;;;;;16.23;14.83;;;22.70;57.00;23.50;101079.00;;;;5088185;28;20172;-40
2022/07/30 08:32:19;;;;;;;15.50;14.20;;;22.80;57.00;23.50;101083.00;;;;5088110;28;20224;-42
2022/07/30 08:34:45;;;;;;;15.47;14.10;;;22.80;57.00;23.50;101082.00;;;;5087267;28;20185;-41
2022/07/30 08:37:11;;;;;;;15.30;13.90;;;22.80;56.90;23.50;101076.00;;;;5081715;28;20216;-40
2022/07/30 08:39:36;;;;;;;15.77;14.37;;;22.80;56.90;23.50;101074.00;;;;5073218;28;20622;-43
2022/07/30 08:42:03;;;;;;;15.20;13.90;;;22.80;56.90;23.50;101072.00;;;;5067575;28;20232;-41
2022/07/30 08:44:29;;;;;;;14.33;13.13;;;22.80;56.90;23.50;101077.00;;;;5067845;28;20176;-40
2022/07/30 08:46:55;;;;;;;14.20;13.10;;;22.80;56.90;23.60;101081.00;;;;5072116;28;20173;-40
2022/07/30 08:49:21;;;;;;;13.90;12.73;;;22.80;56.80;23.60;101080.00;;;;5057600;28;20190;-40
2022/07/30 08:51:48;;;;;;;13.40;12.20;;;22.80;56.90;23.60;101081.00;;;;5068964;28;20162;-43
2022/07/30 08:54:15;;;;;;;12.80;11.70;;;22.90;56.90;23.70;101081.00;;;;5050476;28;20209;-40
2022/07/30 08:56:40;;;;;;;12.30;11.30;;;22.90;56.80;23.70;101082.00;;;;5067575;28;20172;-41
2022/07/30 08:59:06;;;;;;;12.37;11.37;;;22.90;56.60;23.70;101088.00;;;;5049903;28;20202;-41
2022/07/30 09:01:32;;;;;;;12.13;11.20;;;22.90;56.70;23.70;101089.00;;;;5055467;28;20203;-43
2022/07/30 09:03:58;;;;;;;12.17;11.17;;;22.90;56.90;23.80;101083.00;;;;5069582;28;20188;-41
2022/07/30 09:06:23;;;;;;;11.77;10.87;;;22.90;56.80;23.80;101081.00;;;;5069215;28;20196;-42
2022/07/30 09:08:50;;;;;;;14.67;11.73;;;22.90;56.90;23.80;101092.00;;;;5049667;28;20270;-42
2022/07/30 09:11:16;;;;;;;12.07;10.87;;;22.90;57.40;23.80;101087.00;;;;5067626;28;20269;-41
2022/07/30 09:13:43;;;;;;;11.93;10.83;;;22.90;57.40;23.80;101088.00;;;;5067726;28;20281;-41
2022/07/30 09:16:38;;;;;;;11.93;10.50;;;22.90;57.30;23.80;101079.00;;;;5067438;28;20184;-41
2022/07/30 09:19:30;;;;;;;12.50;10.13;;;22.90;57.50;23.80;101096.00;;;;4999598;28;20216;-41
2022/07/30 09:21:57;;;;;;;11.43;9.90;;;22.90;57.50;23.80;101079.00;;;;5046038;28;20220;-40
2022/07/30 09:24:23;;;;;;;11.23;9.87;;;23.00;57.80;23.80;101079.00;;;;5049931;28;20170;-41
2022/07/30 09:27:05;;;;;;;10.90;9.50;;;23.00;57.90;23.90;101089.00;;;;5067035;28;20648;-42
2022/07/30 09:29:31;;;;;;;12.90;10.50;;;23.00;58.00;23.90;101089.00;;;;5067505;28;20193;-40
2022/07/30 09:32:00;;;;;;;13.43;9.43;;;23.00;57.90;23.90;101090.00;;;;5067333;28;20169;-41
2022/07/30 09:34:30;;;;;;;12.67;9.77;;;23.00;57.80;23.90;101083.00;;;;5067854;28;20178;-41
2022/07/30 09:36:57;;;;;;;10.23;9.23;;;23.00;58.20;23.90;101090.00;;;;5067725;28;20188;-41
2022/07/30 09:39:37;;;;;;;10.73;9.47;;;23.00;58.10;23.90;101091.00;;;;5067977;28;20254;-41
2022/07/30 09:42:15;;;;;;;10.67;9.50;;;23.10;58.30;23.90;101081.00;;;;5069234;28;20197;-40
2022/07/30 09:44:41;;;;;;;11.10;8.70;;;23.10;58.30;23.90;101084.00;;;;5071052;28;20193;-41
2022/07/30 09:47:06;;;;;;;10.33;8.53;;;23.00;58.30;24.00;101078.00;;;;5070745;28;20611;-41
2022/07/30 09:49:32;;;;;;;9.43;8.33;;;23.10;58.50;24.00;101084.00;;;;5072031;28;20240;-43
2022/07/30 09:51:58;;;;;;;10.13;8.03;;;23.10;58.50;24.00;101089.00;;;;5089270;28;20189;-40
2022/07/30 09:54:50;;;;;;;9.10;8.20;;;23.00;58.40;24.00;101082.00;;;;5095352;28;20181;-41
2022/07/30 09:57:16;;;;;;;8.80;8.00;;;23.10;58.50;24.00;101082.00;;;;5080538;28;20178;-41
2022/07/30 09:59:41;;;;;;;9.13;8.23;;;23.10;58.50;24.00;101081.00;;;;5037866;28;20177;-41
2022/07/30 10:02:07;;;;;;;8.50;7.53;;;23.10;58.50;24.00;101075.00;;;;5071895;28;20233;-42
2022/07/30 10:04:33;;;;;;;8.93;8.03;;;23.10;58.60;24.00;101082.00;;;;5037350;28;20215;-42
2022/07/30 10:07:00;;;;;;;8.30;7.50;;;23.10;58.70;24.00;101076.00;;;;5071814;28;20234;-41
2022/07/30 10:09:32;;;;;;;7.83;7.07;;;23.20;58.80;24.10;101079.00;;;;5054053;28;20201;-41
2022/07/30 10:12:00;;;;;;;8.27;7.33;;;23.20;58.80;24.10;101085.00;;;;5072238;28;20162;-42
2022/07/30 10:14:32;;;;;;;8.23;6.80;;;23.20;59.00;24.10;101087.00;;;;5071970;28;20222;-42
2022/07/30 10:16:59;;;;;;;7.20;6.60;;;23.20;59.00;24.10;101085.00;;;;5071448;28;20170;-40
2022/07/30 10:19:25;;;;;;;7.83;6.63;;;23.20;59.10;24.10;101093.00;;;;5054272;28;20202;-40
2022/07/30 10:21:52;;;;;;;7.57;6.93;;;23.20;59.10;24.10;101080.00;;;;5071826;28;20662;-41
2022/07/30 10:24:18;;;;;;;7.53;6.73;;;23.20;59.10;24.20;101075.00;;;;5054081;28;20174;-41
2022/07/30 10:26:46;;;;;;;6.80;6.20;;;23.20;59.10;24.20;101067.00;;;;5071975;28;20300;-41
2022/07/30 10:29:13;;;;;;;7.10;6.40;;;23.20;59.10;24.20;101071.00;;;;5072055;28;20277;-41
2022/07/30 10:31:39;;;;;;;7.00;6.40;;;23.20;59.20;24.20;101077.00;;;;5054231;28;20633;-41
2022/07/30 10:34:05;;;;;;;6.70;6.10;;;23.20;59.20;24.20;101077.00;;;;5054502;28;20252;-42
2022/07/30 10:36:31;;;;;;;6.73;6.17;;;23.30;59.30;24.20;101072.00;;;;5054335;28;20177;-43
2022/07/30 10:38:57;;;;;;;16.57;6.73;;;23.30;60.00;24.20;101017.00;;;;5037244;28;20228;-41
2022/07/30 10:42:03;;;;;;;7.70;6.53;;;23.20;59.30;24.30;101075.00;;;;5074350;28;20202;-41
2022/07/30 10:44:55;;;;;;;6.57;6.00;;;23.30;59.40;24.20;101078.00;;;;5038773;28;20658;-41